sensor_id;sensor_type;location;lat;lon;timestamp;temperature;humidity
9057;DHT22;4563;54.756;9.400;2024-01-25T00:00:31;10.00;77.90
9057;DHT22;4563;54.756;9.400;2024-01-25T00:02:58;9.90;79.00
9057;DHT22;4563;54.756;9.400;2024-01-25T00:05:25;10.00;77.80
9057;DHT22;4563;54.756;9.400;2024-01-25T00:07:53;9.90;78.60
9057;DHT22;4563;54.756;9.400;2024-01-25T00:10:20;9.90;78.80
9057;DHT22;4563;54.756;9.400;2024-01-25T00:12:49;9.90;78.80
9057;DHT22;4563;54.756;9.400;2024-01-25T00:15:16;9.90;78.80
9057;DHT22;4563;54.756;9.400;2024-01-25T00:17:43;9.90;78.80
9057;DHT22;4563;54.756;9.400;2024-01-25T00:20:10;9.90;78.80
9057;DHT22;4563;54.756;9.400;2024-01-25T00:22:37;9.90;78.80
9057;DHT22;4563;54.756;9.400;2024-01-25T00:25:06;9.90;78.80
9057;DHT22;4563;54.756;9.400;2024-01-25T00:27:33;9.90;79.50
9057;DHT22;4563;54.756;9.400;2024-01-25T00:30:00;9.90;78.70
9057;DHT22;4563;54.756;9.400;2024-01-25T00:32:27;9.90;78.50
9057;DHT22;4563;54.756;9.400;2024-01-25T00:34:54;9.90;78.60
9057;DHT22;4563;54.756;9.400;2024-01-25T00:37:21;9.90;78.60
9057;DHT22;4563;54.756;9.400;2024-01-25T00:39:49;9.90;78.60
9057;DHT22;4563;54.756;9.400;2024-01-25T00:42:21;9.90;78.60
9057;DHT22;4563;54.756;9.400;2024-01-25T00:44:49;9.90;78.60
9057;DHT22;4563;54.756;9.400;2024-01-25T00:47:16;9.90;78.60
9057;DHT22;4563;54.756;9.400;2024-01-25T00:49:44;9.90;78.60
9057;DHT22;4563;54.756;9.400;2024-01-25T00:52:12;9.90;78.60
9057;DHT22;4563;54.756;9.400;2024-01-25T00:54:39;9.90;78.70
9057;DHT22;4563;54.756;9.400;2024-01-25T00:57:07;9.90;78.70
9057;DHT22;4563;54.756;9.400;2024-01-25T00:59:36;9.90;78.70
9057;DHT22;4563;54.756;9.400;2024-01-25T01:02:04;9.90;78.60
9057;DHT22;4563;54.756;9.400;2024-01-25T01:04:32;9.90;78.60
9057;DHT22;4563;54.756;9.400;2024-01-25T01:06:59;9.90;78.50
9057;DHT22;4563;54.756;9.400;2024-01-25T01:09:26;9.90;78.70
9057;DHT22;4563;54.756;9.400;2024-01-25T01:11:52;9.90;78.60
9057;DHT22;4563;54.756;9.400;2024-01-25T01:14:19;9.90;78.70
9057;DHT22;4563;54.756;9.400;2024-01-25T01:16:48;9.90;78.70
9057;DHT22;4563;54.756;9.400;2024-01-25T01:19:16;9.90;78.60
9057;DHT22;4563;54.756;9.400;2024-01-25T01:21:43;9.90;78.60
9057;DHT22;4563;54.756;9.400;2024-01-25T01:24:10;9.90;78.60
9057;DHT22;4563;54.756;9.400;2024-01-25T01:26:37;9.90;78.60
9057;DHT22;4563;54.756;9.400;2024-01-25T01:29:04;9.90;78.60
9057;DHT22;4563;54.756;9.400;2024-01-25T01:31:31;9.90;78.60
9057;DHT22;4563;54.756;9.400;2024-01-25T01:33:59;9.90;78.60
9057;DHT22;4563;54.756;9.400;2024-01-25T01:36:26;9.90;78.60
9057;DHT22;4563;54.756;9.400;2024-01-25T01:38:53;9.90;78.60
9057;DHT22;4563;54.756;9.400;2024-01-25T01:41:20;9.90;78.60
9057;DHT22;4563;54.756;9.400;2024-01-25T01:43:47;9.90;78.60
9057;DHT22;4563;54.756;9.400;2024-01-25T01:46:32;9.90;78.60
9057;DHT22;4563;54.756;9.400;2024-01-25T01:49:02;9.90;78.60
9057;DHT22;4563;54.756;9.400;2024-01-25T01:51:30;9.90;78.60
9057;DHT22;4563;54.756;9.400;2024-01-25T01:53:57;9.90;78.70
9057;DHT22;4563;54.756;9.400;2024-01-25T01:56:27;9.90;78.60
9057;DHT22;4563;54.756;9.400;2024-01-25T01:58:54;9.90;79.40
9057;DHT22;4563;54.756;9.400;2024-01-25T02:01:24;9.90;78.70
9057;DHT22;4563;54.756;9.400;2024-01-25T02:03:51;9.90;78.70
9057;DHT22;4563;54.756;9.400;2024-01-25T02:06:19;9.90;78.60
9057;DHT22;4563;54.756;9.400;2024-01-25T02:08:47;9.90;78.80
9057;DHT22;4563;54.756;9.400;2024-01-25T02:11:14;9.90;78.60
9057;DHT22;4563;54.756;9.400;2024-01-25T02:13:41;9.90;78.60
9057;DHT22;4563;54.756;9.400;2024-01-25T02:16:08;9.90;78.70
9057;DHT22;4563;54.756;9.400;2024-01-25T02:18:35;9.80;78.70
9057;DHT22;4563;54.756;9.400;2024-01-25T02:21:02;9.90;78.60
9057;DHT22;4563;54.756;9.400;2024-01-25T02:23:30;9.80;79.30
9057;DHT22;4563;54.756;9.400;2024-01-25T02:25:57;9.80;78.50
9057;DHT22;4563;54.756;9.400;2024-01-25T02:28:27;9.90;78.50
9057;DHT22;4563;54.756;9.400;2024-01-25T02:30:54;9.80;78.50
9057;DHT22;4563;54.756;9.400;2024-01-25T02:33:21;9.90;78.50
9057;DHT22;4563;54.756;9.400;2024-01-25T02:35:48;9.80;78.40
9057;DHT22;4563;54.756;9.400;2024-01-25T02:38:15;9.90;79.30
9057;DHT22;4563;54.756;9.400;2024-01-25T02:40:43;9.80;78.40
9057;DHT22;4563;54.756;9.400;2024-01-25T02:43:09;9.90;78.60
9057;DHT22;4563;54.756;9.400;2024-01-25T02:45:36;9.90;78.60
9057;DHT22;4563;54.756;9.400;2024-01-25T02:48:04;9.80;78.70
9057;DHT22;4563;54.756;9.400;2024-01-25T02:50:31;9.80;78.60
9057;DHT22;4563;54.756;9.400;2024-01-25T02:52:58;9.80;78.70
9057;DHT22;4563;54.756;9.400;2024-01-25T02:55:25;9.80;78.70
9057;DHT22;4563;54.756;9.400;2024-01-25T02:57:53;9.80;78.70
9057;DHT22;4563;54.756;9.400;2024-01-25T03:00:20;9.80;78.80
9057;DHT22;4563;54.756;9.400;2024-01-25T03:02:47;9.80;78.70
9057;DHT22;4563;54.756;9.400;2024-01-25T03:05:14;9.80;78.60
9057;DHT22;4563;54.756;9.400;2024-01-25T03:07:41;9.80;78.70
9057;DHT22;4563;54.756;9.400;2024-01-25T03:10:08;9.80;78.60
9057;DHT22;4563;54.756;9.400;2024-01-25T03:12:35;9.80;78.60
9057;DHT22;4563;54.756;9.400;2024-01-25T03:15:04;9.80;78.80
9057;DHT22;4563;54.756;9.400;2024-01-25T03:17:32;9.80;78.80
9057;DHT22;4563;54.756;9.400;2024-01-25T03:19:58;9.80;78.90
9057;DHT22;4563;54.756;9.400;2024-01-25T03:22:25;9.80;78.80
9057;DHT22;4563;54.756;9.400;2024-01-25T03:24:52;9.70;78.80
9057;DHT22;4563;54.756;9.400;2024-01-25T03:27:19;9.70;78.80
9057;DHT22;4563;54.756;9.400;2024-01-25T03:29:46;9.70;78.80
9057;DHT22;4563;54.756;9.400;2024-01-25T03:32:14;9.70;78.90
9057;DHT22;4563;54.756;9.400;2024-01-25T03:34:43;9.70;78.90
9057;DHT22;4563;54.756;9.400;2024-01-25T03:37:10;9.70;79.00
9057;DHT22;4563;54.756;9.400;2024-01-25T03:39:37;9.70;78.90
9057;DHT22;4563;54.756;9.400;2024-01-25T03:42:04;9.70;78.90
9057;DHT22;4563;54.756;9.400;2024-01-25T03:44:31;9.70;78.90
9057;DHT22;4563;54.756;9.400;2024-01-25T03:46:57;9.70;78.80
9057;DHT22;4563;54.756;9.400;2024-01-25T03:49:26;9.70;78.90
9057;DHT22;4563;54.756;9.400;2024-01-25T03:51:53;9.70;79.00
9057;DHT22;4563;54.756;9.400;2024-01-25T03:54:20;9.60;79.00
9057;DHT22;4563;54.756;9.400;2024-01-25T03:56:47;9.60;79.00
9057;DHT22;4563;54.756;9.400;2024-01-25T03:59:13;9.60;79.00
9057;DHT22;4563;54.756;9.400;2024-01-25T04:01:43;9.60;79.00
9057;DHT22;4563;54.756;9.400;2024-01-25T04:04:10;9.60;79.10
9057;DHT22;4563;54.756;9.400;2024-01-25T04:06:41;9.60;79.10
9057;DHT22;4563;54.756;9.400;2024-01-25T04:09:09;9.60;79.10
9057;DHT22;4563;54.756;9.400;2024-01-25T04:11:36;9.60;79.10
9057;DHT22;4563;54.756;9.400;2024-01-25T04:14:03;9.60;79.10
9057;DHT22;4563;54.756;9.400;2024-01-25T04:16:30;9.60;79.10
9057;DHT22;4563;54.756;9.400;2024-01-25T04:18:57;9.60;79.10
9057;DHT22;4563;54.756;9.400;2024-01-25T04:21:24;9.60;79.20
9057;DHT22;4563;54.756;9.400;2024-01-25T04:23:52;9.60;79.20
9057;DHT22;4563;54.756;9.400;2024-01-25T04:26:19;9.60;79.30
9057;DHT22;4563;54.756;9.400;2024-01-25T04:28:46;9.60;79.30
9057;DHT22;4563;54.756;9.400;2024-01-25T04:31:13;9.60;79.40
9057;DHT22;4563;54.756;9.400;2024-01-25T04:33:39;9.60;79.40
9057;DHT22;4563;54.756;9.400;2024-01-25T04:36:07;9.60;79.40
9057;DHT22;4563;54.756;9.400;2024-01-25T04:38:33;9.60;79.70
9057;DHT22;4563;54.756;9.400;2024-01-25T04:41:01;9.60;80.10
9057;DHT22;4563;54.756;9.400;2024-01-25T04:43:28;9.50;80.00
9057;DHT22;4563;54.756;9.400;2024-01-25T04:45:55;9.50;79.90
9057;DHT22;4563;54.756;9.400;2024-01-25T04:48:22;9.60;79.90
9057;DHT22;4563;54.756;9.400;2024-01-25T04:50:48;9.60;79.90
9057;DHT22;4563;54.756;9.400;2024-01-25T04:53:15;9.60;79.70
9057;DHT22;4563;54.756;9.400;2024-01-25T04:55:42;9.60;79.70
9057;DHT22;4563;54.756;9.400;2024-01-25T04:58:10;9.60;79.60
9057;DHT22;4563;54.756;9.400;2024-01-25T05:00:37;9.60;79.60
9057;DHT22;4563;54.756;9.400;2024-01-25T05:03:05;9.60;79.60
9057;DHT22;4563;54.756;9.400;2024-01-25T05:05:32;9.60;80.30
9057;DHT22;4563;54.756;9.400;2024-01-25T05:07:58;9.60;79.40
9057;DHT22;4563;54.756;9.400;2024-01-25T05:10:26;9.60;79.50
9057;DHT22;4563;54.756;9.400;2024-01-25T05:12:53;9.60;79.40
9057;DHT22;4563;54.756;9.400;2024-01-25T05:15:21;9.60;79.50
9057;DHT22;4563;54.756;9.400;2024-01-25T05:17:47;9.60;79.40
9057;DHT22;4563;54.756;9.400;2024-01-25T05:20:14;9.60;79.50
9057;DHT22;4563;54.756;9.400;2024-01-25T05:22:43;9.60;79.50
9057;DHT22;4563;54.756;9.400;2024-01-25T05:25:11;9.60;79.50
9057;DHT22;4563;54.756;9.400;2024-01-25T05:27:38;9.60;79.60
9057;DHT22;4563;54.756;9.400;2024-01-25T05:30:06;9.60;79.50
9057;DHT22;4563;54.756;9.400;2024-01-25T05:32:35;9.60;79.50
9057;DHT22;4563;54.756;9.400;2024-01-25T05:35:02;9.60;79.60
9057;DHT22;4563;54.756;9.400;2024-01-25T05:37:29;9.60;79.50
9057;DHT22;4563;54.756;9.400;2024-01-25T05:39:55;9.60;79.60
9057;DHT22;4563;54.756;9.400;2024-01-25T05:42:22;9.60;79.60
9057;DHT22;4563;54.756;9.400;2024-01-25T05:44:49;9.60;79.60
9057;DHT22;4563;54.756;9.400;2024-01-25T05:47:16;9.60;79.60
9057;DHT22;4563;54.756;9.400;2024-01-25T05:49:44;9.60;79.50
9057;DHT22;4563;54.756;9.400;2024-01-25T05:52:11;9.60;79.60
9057;DHT22;4563;54.756;9.400;2024-01-25T05:54:38;9.60;79.50
9057;DHT22;4563;54.756;9.400;2024-01-25T05:57:04;9.60;79.50
9057;DHT22;4563;54.756;9.400;2024-01-25T05:59:31;9.60;79.60
9057;DHT22;4563;54.756;9.400;2024-01-25T06:01:58;9.60;79.50
9057;DHT22;4563;54.756;9.400;2024-01-25T06:04:25;9.60;79.50
9057;DHT22;4563;54.756;9.400;2024-01-25T06:06:53;9.60;79.50
9057;DHT22;4563;54.756;9.400;2024-01-25T06:09:20;9.60;79.50
9057;DHT22;4563;54.756;9.400;2024-01-25T06:11:47;9.60;79.40
9057;DHT22;4563;54.756;9.400;2024-01-25T06:14:13;9.60;79.50
9057;DHT22;4563;54.756;9.400;2024-01-25T06:16:40;9.60;79.40
9057;DHT22;4563;54.756;9.400;2024-01-25T06:19:07;9.60;79.50
9057;DHT22;4563;54.756;9.400;2024-01-25T06:21:34;9.60;79.40
9057;DHT22;4563;54.756;9.400;2024-01-25T06:24:05;9.60;79.40
9057;DHT22;4563;54.756;9.400;2024-01-25T06:26:32;9.60;79.50
9057;DHT22;4563;54.756;9.400;2024-01-25T06:28:59;9.60;79.40
9057;DHT22;4563;54.756;9.400;2024-01-25T06:31:26;9.60;79.40
9057;DHT22;4563;54.756;9.400;2024-01-25T06:33:53;9.60;79.50
9057;DHT22;4563;54.756;9.400;2024-01-25T06:36:20;9.60;79.50
9057;DHT22;4563;54.756;9.400;2024-01-25T06:38:46;9.60;79.50
9057;DHT22;4563;54.756;9.400;2024-01-25T06:41:15;9.60;79.50
9057;DHT22;4563;54.756;9.400;2024-01-25T06:43:42;9.60;79.50
9057;DHT22;4563;54.756;9.400;2024-01-25T06:46:09;9.60;79.60
9057;DHT22;4563;54.756;9.400;2024-01-25T06:48:36;9.60;79.50
9057;DHT22;4563;54.756;9.400;2024-01-25T06:51:03;9.60;79.60
9057;DHT22;4563;54.756;9.400;2024-01-25T06:53:30;9.60;79.50
9057;DHT22;4563;54.756;9.400;2024-01-25T06:55:56;9.50;79.50
9057;DHT22;4563;54.756;9.400;2024-01-25T06:58:25;9.50;79.50
9057;DHT22;4563;54.756;9.400;2024-01-25T07:00:52;9.50;79.50
9057;DHT22;4563;54.756;9.400;2024-01-25T07:03:19;9.50;79.50
9057;DHT22;4563;54.756;9.400;2024-01-25T07:05:46;9.50;79.40
9057;DHT22;4563;54.756;9.400;2024-01-25T07:08:12;9.50;79.40
9057;DHT22;4563;54.756;9.400;2024-01-25T07:10:40;9.50;79.50
9057;DHT22;4563;54.756;9.400;2024-01-25T07:13:07;9.50;79.50
9057;DHT22;4563;54.756;9.400;2024-01-25T07:15:35;9.50;79.50
9057;DHT22;4563;54.756;9.400;2024-01-25T07:18:02;9.50;79.50
9057;DHT22;4563;54.756;9.400;2024-01-25T07:20:29;9.50;79.50
9057;DHT22;4563;54.756;9.400;2024-01-25T07:22:56;9.50;79.60
9057;DHT22;4563;54.756;9.400;2024-01-25T07:25:23;9.50;79.60
9057;DHT22;4563;54.756;9.400;2024-01-25T07:27:50;9.50;79.60
9057;DHT22;4563;54.756;9.400;2024-01-25T07:30:17;9.50;79.60
9057;DHT22;4563;54.756;9.400;2024-01-25T07:32:46;9.40;79.60
9057;DHT22;4563;54.756;9.400;2024-01-25T07:35:13;9.50;79.70
9057;DHT22;4563;54.756;9.400;2024-01-25T07:37:40;9.40;79.60
9057;DHT22;4563;54.756;9.400;2024-01-25T07:40:08;9.50;79.80
9057;DHT22;4563;54.756;9.400;2024-01-25T07:42:35;9.40;79.70
9057;DHT22;4563;54.756;9.400;2024-01-25T07:45:02;9.40;79.70
9057;DHT22;4563;54.756;9.400;2024-01-25T07:47:29;9.40;79.70
9057;DHT22;4563;54.756;9.400;2024-01-25T07:49:58;9.40;79.70
9057;DHT22;4563;54.756;9.400;2024-01-25T07:52:24;9.40;79.70
9057;DHT22;4563;54.756;9.400;2024-01-25T07:54:51;9.50;79.80
9057;DHT22;4563;54.756;9.400;2024-01-25T07:57:19;9.40;79.80
9057;DHT22;4563;54.756;9.400;2024-01-25T07:59:46;9.40;79.80
9057;DHT22;4563;54.756;9.400;2024-01-25T08:02:13;9.40;79.90
9057;DHT22;4563;54.756;9.400;2024-01-25T08:04:40;9.40;79.90
9057;DHT22;4563;54.756;9.400;2024-01-25T08:07:08;9.40;79.90
9057;DHT22;4563;54.756;9.400;2024-01-25T08:09:35;9.40;80.00
9057;DHT22;4563;54.756;9.400;2024-01-25T08:12:02;9.40;80.00
9057;DHT22;4563;54.756;9.400;2024-01-25T08:14:29;9.40;80.00
9057;DHT22;4563;54.756;9.400;2024-01-25T08:16:57;9.50;80.20
9057;DHT22;4563;54.756;9.400;2024-01-25T08:19:24;9.40;80.10
9057;DHT22;4563;54.756;9.400;2024-01-25T08:21:51;9.40;80.00
9057;DHT22;4563;54.756;9.400;2024-01-25T08:24:20;9.40;80.00
9057;DHT22;4563;54.756;9.400;2024-01-25T08:26:46;9.40;80.00
9057;DHT22;4563;54.756;9.400;2024-01-25T08:29:13;9.40;80.10
9057;DHT22;4563;54.756;9.400;2024-01-25T08:31:40;9.40;80.10
9057;DHT22;4563;54.756;9.400;2024-01-25T08:34:07;9.40;80.10
9057;DHT22;4563;54.756;9.400;2024-01-25T08:36:33;9.40;80.20
9057;DHT22;4563;54.756;9.400;2024-01-25T08:39:00;9.40;80.10
9057;DHT22;4563;54.756;9.400;2024-01-25T08:41:28;9.50;80.30
9057;DHT22;4563;54.756;9.400;2024-01-25T08:43:55;9.40;80.20
9057;DHT22;4563;54.756;9.400;2024-01-25T08:46:22;9.40;80.20
9057;DHT22;4563;54.756;9.400;2024-01-25T08:48:49;9.40;80.30
9057;DHT22;4563;54.756;9.400;2024-01-25T08:51:16;9.50;80.40
9057;DHT22;4563;54.756;9.400;2024-01-25T08:53:43;9.50;80.40
9057;DHT22;4563;54.756;9.400;2024-01-25T08:56:09;9.50;80.40
9057;DHT22;4563;54.756;9.400;2024-01-25T08:58:38;9.50;80.40
9057;DHT22;4563;54.756;9.400;2024-01-25T09:01:04;9.50;80.40
9057;DHT22;4563;54.756;9.400;2024-01-25T09:03:31;9.50;80.40
9057;DHT22;4563;54.756;9.400;2024-01-25T09:05:58;9.50;80.50
9057;DHT22;4563;54.756;9.400;2024-01-25T09:08:30;9.50;80.50
9057;DHT22;4563;54.756;9.400;2024-01-25T09:10:57;9.50;80.60
9057;DHT22;4563;54.756;9.400;2024-01-25T09:13:24;9.50;80.50
9057;DHT22;4563;54.756;9.400;2024-01-25T09:15:52;9.50;80.50
9057;DHT22;4563;54.756;9.400;2024-01-25T09:18:19;9.50;80.50
9057;DHT22;4563;54.756;9.400;2024-01-25T09:20:45;9.50;80.50
9057;DHT22;4563;54.756;9.400;2024-01-25T09:23:14;9.50;80.60
9057;DHT22;4563;54.756;9.400;2024-01-25T09:25:42;9.60;80.60
9057;DHT22;4563;54.756;9.400;2024-01-25T09:28:08;9.60;80.70
9057;DHT22;4563;54.756;9.400;2024-01-25T09:30:37;9.60;80.60
9057;DHT22;4563;54.756;9.400;2024-01-25T09:33:07;9.60;80.60
9057;DHT22;4563;54.756;9.400;2024-01-25T09:35:34;9.60;80.60
9057;DHT22;4563;54.756;9.400;2024-01-25T09:38:01;9.60;80.70
9057;DHT22;4563;54.756;9.400;2024-01-25T09:40:28;9.60;80.70
9057;DHT22;4563;54.756;9.400;2024-01-25T09:42:55;9.70;80.80
9057;DHT22;4563;54.756;9.400;2024-01-25T09:45:24;9.60;80.70
9057;DHT22;4563;54.756;9.400;2024-01-25T09:47:51;9.70;80.80
9057;DHT22;4563;54.756;9.400;2024-01-25T09:50:19;9.70;80.80
9057;DHT22;4563;54.756;9.400;2024-01-25T09:52:52;9.70;80.90
9057;DHT22;4563;54.756;9.400;2024-01-25T09:55:23;9.70;80.90
9057;DHT22;4563;54.756;9.400;2024-01-25T09:57:53;9.70;80.90
9057;DHT22;4563;54.756;9.400;2024-01-25T10:00:22;9.80;80.90
9057;DHT22;4563;54.756;9.400;2024-01-25T10:02:49;9.80;80.90
9057;DHT22;4563;54.756;9.400;2024-01-25T10:05:16;9.80;80.90
9057;DHT22;4563;54.756;9.400;2024-01-25T10:07:45;9.80;80.90
9057;DHT22;4563;54.756;9.400;2024-01-25T10:10:13;9.80;80.90
9057;DHT22;4563;54.756;9.400;2024-01-25T10:12:40;9.80;80.80
9057;DHT22;4563;54.756;9.400;2024-01-25T10:15:08;9.90;81.00
9057;DHT22;4563;54.756;9.400;2024-01-25T10:17:35;9.90;81.00
9057;DHT22;4563;54.756;9.400;2024-01-25T10:20:05;9.90;80.90
9057;DHT22;4563;54.756;9.400;2024-01-25T10:22:37;9.90;80.90
9057;DHT22;4563;54.756;9.400;2024-01-25T10:25:08;9.90;80.90
9057;DHT22;4563;54.756;9.400;2024-01-25T10:27:38;10.00;79.80
9057;DHT22;4563;54.756;9.400;2024-01-25T10:30:06;10.00;79.70
9057;DHT22;4563;54.756;9.400;2024-01-25T10:32:35;10.00;79.60
9057;DHT22;4563;54.756;9.400;2024-01-25T10:35:02;10.00;79.50
9057;DHT22;4563;54.756;9.400;2024-01-25T10:37:33;10.00;79.50
9057;DHT22;4563;54.756;9.400;2024-01-25T10:40:00;10.00;79.50
9057;DHT22;4563;54.756;9.400;2024-01-25T10:42:30;10.00;79.40
9057;DHT22;4563;54.756;9.400;2024-01-25T10:44:57;10.00;79.40
9057;DHT22;4563;54.756;9.400;2024-01-25T10:47:24;10.00;79.40
9057;DHT22;4563;54.756;9.400;2024-01-25T10:49:53;10.00;79.30
9057;DHT22;4563;54.756;9.400;2024-01-25T10:52:20;10.10;79.30
9057;DHT22;4563;54.756;9.400;2024-01-25T10:54:47;10.10;79.30
9057;DHT22;4563;54.756;9.400;2024-01-25T10:57:14;10.10;79.30
9057;DHT22;4563;54.756;9.400;2024-01-25T10:59:42;10.10;79.30
9057;DHT22;4563;54.756;9.400;2024-01-25T11:02:09;10.10;79.30
9057;DHT22;4563;54.756;9.400;2024-01-25T11:04:36;10.10;79.40
9057;DHT22;4563;54.756;9.400;2024-01-25T11:07:07;10.10;79.30
9057;DHT22;4563;54.756;9.400;2024-01-25T11:09:35;10.10;79.30
9057;DHT22;4563;54.756;9.400;2024-01-25T11:12:11;10.20;79.40
9057;DHT22;4563;54.756;9.400;2024-01-25T11:14:38;10.20;79.40
9057;DHT22;4563;54.756;9.400;2024-01-25T11:17:19;10.20;79.30
9057;DHT22;4563;54.756;9.400;2024-01-25T11:19:47;10.20;79.40
9057;DHT22;4563;54.756;9.400;2024-01-25T11:22:14;10.20;79.20
9057;DHT22;4563;54.756;9.400;2024-01-25T11:24:41;10.30;79.30
9057;DHT22;4563;54.756;9.400;2024-01-25T11:27:09;10.30;79.30
9057;DHT22;4563;54.756;9.400;2024-01-25T11:29:38;10.30;79.40
9057;DHT22;4563;54.756;9.400;2024-01-25T11:32:06;10.30;79.30
9057;DHT22;4563;54.756;9.400;2024-01-25T11:34:34;10.40;79.40
9057;DHT22;4563;54.756;9.400;2024-01-25T11:37:01;10.40;79.30
9057;DHT22;4563;54.756;9.400;2024-01-25T11:39:28;10.40;79.30
9057;DHT22;4563;54.756;9.400;2024-01-25T11:41:55;10.40;79.20
9057;DHT22;4563;54.756;9.400;2024-01-25T11:44:22;10.40;79.20
9057;DHT22;4563;54.756;9.400;2024-01-25T11:46:50;10.50;79.30
9057;DHT22;4563;54.756;9.400;2024-01-25T11:49:17;10.50;79.20
9057;DHT22;4563;54.756;9.400;2024-01-25T11:51:45;10.50;79.20
9057;DHT22;4563;54.756;9.400;2024-01-25T11:54:12;10.50;79.10
9057;DHT22;4563;54.756;9.400;2024-01-25T11:56:39;10.60;79.20
9057;DHT22;4563;54.756;9.400;2024-01-25T11:59:07;10.60;79.10
9057;DHT22;4563;54.756;9.400;2024-01-25T12:01:35;10.60;79.10
9057;DHT22;4563;54.756;9.400;2024-01-25T12:04:02;10.60;79.00
9057;DHT22;4563;54.756;9.400;2024-01-25T12:06:29;10.60;79.00
9057;DHT22;4563;54.756;9.400;2024-01-25T12:09:06;10.70;79.10
9057;DHT22;4563;54.756;9.400;2024-01-25T12:11:34;10.70;79.10
9057;DHT22;4563;54.756;9.400;2024-01-25T12:14:00;10.70;79.00
9057;DHT22;4563;54.756;9.400;2024-01-25T12:16:29;10.70;78.90
9057;DHT22;4563;54.756;9.400;2024-01-25T12:18:56;10.80;79.00
9057;DHT22;4563;54.756;9.400;2024-01-25T12:21:23;10.70;78.80
9057;DHT22;4563;54.756;9.400;2024-01-25T12:23:50;10.80;78.90
9057;DHT22;4563;54.756;9.400;2024-01-25T12:26:19;10.80;78.90
9057;DHT22;4563;54.756;9.400;2024-01-25T12:28:46;10.80;78.80
9057;DHT22;4563;54.756;9.400;2024-01-25T12:31:14;10.80;78.70
9057;DHT22;4563;54.756;9.400;2024-01-25T12:33:41;10.80;78.60
9057;DHT22;4563;54.756;9.400;2024-01-25T12:36:09;10.80;78.40
9057;DHT22;4563;54.756;9.400;2024-01-25T12:38:36;10.80;78.40
9057;DHT22;4563;54.756;9.400;2024-01-25T12:41:03;10.80;78.30
9057;DHT22;4563;54.756;9.400;2024-01-25T12:43:32;10.80;78.30
9057;DHT22;4563;54.756;9.400;2024-01-25T12:45:59;10.80;78.30
9057;DHT22;4563;54.756;9.400;2024-01-25T12:48:25;10.80;79.00
9057;DHT22;4563;54.756;9.400;2024-01-25T12:50:52;10.80;78.20
9057;DHT22;4563;54.756;9.400;2024-01-25T12:53:19;10.80;78.20
9057;DHT22;4563;54.756;9.400;2024-01-25T12:55:46;10.80;78.10
9057;DHT22;4563;54.756;9.400;2024-01-25T12:58:13;10.80;78.10
9057;DHT22;4563;54.756;9.400;2024-01-25T13:00:41;10.80;78.10
9057;DHT22;4563;54.756;9.400;2024-01-25T13:03:08;10.80;78.00
9057;DHT22;4563;54.756;9.400;2024-01-25T13:05:35;10.80;78.00
9057;DHT22;4563;54.756;9.400;2024-01-25T13:08:05;10.80;78.00
9057;DHT22;4563;54.756;9.400;2024-01-25T13:10:32;10.80;78.00
9057;DHT22;4563;54.756;9.400;2024-01-25T13:12:59;10.80;77.90
9057;DHT22;4563;54.756;9.400;2024-01-25T13:15:26;10.80;77.90
9057;DHT22;4563;54.756;9.400;2024-01-25T13:17:55;10.80;77.80
9057;DHT22;4563;54.756;9.400;2024-01-25T13:20:22;10.80;77.80
9057;DHT22;4563;54.756;9.400;2024-01-25T13:22:49;10.70;77.60
9057;DHT22;4563;54.756;9.400;2024-01-25T13:25:16;10.70;77.70
9057;DHT22;4563;54.756;9.400;2024-01-25T13:27:43;10.70;77.60
9057;DHT22;4563;54.756;9.400;2024-01-25T13:30:10;10.70;77.60
9057;DHT22;4563;54.756;9.400;2024-01-25T13:32:39;10.70;77.60
9057;DHT22;4563;54.756;9.400;2024-01-25T13:35:07;10.70;77.60
9057;DHT22;4563;54.756;9.400;2024-01-25T13:37:34;10.60;77.50
9057;DHT22;4563;54.756;9.400;2024-01-25T13:40:02;10.60;77.50
9057;DHT22;4563;54.756;9.400;2024-01-25T13:42:29;10.60;77.50
9057;DHT22;4563;54.756;9.400;2024-01-25T13:44:57;10.60;77.60
9057;DHT22;4563;54.756;9.400;2024-01-25T13:47:24;10.60;77.60
9057;DHT22;4563;54.756;9.400;2024-01-25T13:49:50;10.60;77.60
9057;DHT22;4563;54.756;9.400;2024-01-25T13:52:19;10.50;77.60
9057;DHT22;4563;54.756;9.400;2024-01-25T13:54:46;10.50;77.60
9057;DHT22;4563;54.756;9.400;2024-01-25T13:57:13;10.50;77.60
9057;DHT22;4563;54.756;9.400;2024-01-25T13:59:40;10.50;77.60
9057;DHT22;4563;54.756;9.400;2024-01-25T14:02:07;10.50;77.70
9057;DHT22;4563;54.756;9.400;2024-01-25T14:04:34;10.50;77.60
9057;DHT22;4563;54.756;9.400;2024-01-25T14:07:01;10.40;77.60
9057;DHT22;4563;54.756;9.400;2024-01-25T14:09:29;10.50;77.70
9057;DHT22;4563;54.756;9.400;2024-01-25T14:11:56;10.40;77.60
9057;DHT22;4563;54.756;9.400;2024-01-25T14:14:23;10.40;77.60
9057;DHT22;4563;54.756;9.400;2024-01-25T14:16:50;10.40;77.60
9057;DHT22;4563;54.756;9.400;2024-01-25T14:19:17;10.40;77.70
9057;DHT22;4563;54.756;9.400;2024-01-25T14:21:46;10.40;77.70
9057;DHT22;4563;54.756;9.400;2024-01-25T14:24:13;10.30;77.70
9057;DHT22;4563;54.756;9.400;2024-01-25T14:26:41;10.30;77.60
9057;DHT22;4563;54.756;9.400;2024-01-25T14:29:08;10.30;77.60
9057;DHT22;4563;54.756;9.400;2024-01-25T14:31:35;10.40;78.50
9057;DHT22;4563;54.756;9.400;2024-01-25T14:34:03;10.30;77.70
9057;DHT22;4563;54.756;9.400;2024-01-25T14:36:30;10.30;77.70
9057;DHT22;4563;54.756;9.400;2024-01-25T14:39:00;10.30;77.80
9057;DHT22;4563;54.756;9.400;2024-01-25T14:41:28;10.30;77.80
9057;DHT22;4563;54.756;9.400;2024-01-25T14:43:58;10.30;77.80
9057;DHT22;4563;54.756;9.400;2024-01-25T14:46:38;10.30;77.80
9057;DHT22;4563;54.756;9.400;2024-01-25T14:49:06;10.20;77.80
9057;DHT22;4563;54.756;9.400;2024-01-25T14:51:40;10.20;77.60
9057;DHT22;4563;54.756;9.400;2024-01-25T14:54:07;10.30;78.00
9057;DHT22;4563;54.756;9.400;2024-01-25T14:56:37;10.20;77.80
9057;DHT22;4563;54.756;9.400;2024-01-25T14:59:06;10.30;77.90
9057;DHT22;4563;54.756;9.400;2024-01-25T15:01:34;10.20;77.80
9057;DHT22;4563;54.756;9.400;2024-01-25T15:04:01;10.20;77.90
9057;DHT22;4563;54.756;9.400;2024-01-25T15:06:28;10.20;77.80
9057;DHT22;4563;54.756;9.400;2024-01-25T15:08:56;10.30;77.80
9057;DHT22;4563;54.756;9.400;2024-01-25T15:11:26;10.20;77.70
9057;DHT22;4563;54.756;9.400;2024-01-25T15:13:55;10.20;77.80
9057;DHT22;4563;54.756;9.400;2024-01-25T15:16:27;10.20;77.90
9057;DHT22;4563;54.756;9.400;2024-01-25T15:18:56;10.20;77.80
9057;DHT22;4563;54.756;9.400;2024-01-25T15:21:25;10.20;77.80
9057;DHT22;4563;54.756;9.400;2024-01-25T15:23:52;10.20;77.80
9057;DHT22;4563;54.756;9.400;2024-01-25T15:26:20;10.20;77.80
9057;DHT22;4563;54.756;9.400;2024-01-25T15:28:48;10.20;77.90
9057;DHT22;4563;54.756;9.400;2024-01-25T15:31:17;10.20;77.90
9057;DHT22;4563;54.756;9.400;2024-01-25T15:33:49;10.10;77.90
9057;DHT22;4563;54.756;9.400;2024-01-25T15:36:17;10.10;77.90
9057;DHT22;4563;54.756;9.400;2024-01-25T15:38:47;10.10;77.90
9057;DHT22;4563;54.756;9.400;2024-01-25T15:41:15;10.10;77.90
9057;DHT22;4563;54.756;9.400;2024-01-25T15:43:44;10.10;78.00
9057;DHT22;4563;54.756;9.400;2024-01-25T15:46:11;10.10;77.90
9057;DHT22;4563;54.756;9.400;2024-01-25T15:48:40;10.10;78.00
9057;DHT22;4563;54.756;9.400;2024-01-25T15:51:09;10.10;78.70
9057;DHT22;4563;54.756;9.400;2024-01-25T15:53:36;10.10;77.90
9057;DHT22;4563;54.756;9.400;2024-01-25T15:56:03;10.10;78.00
9057;DHT22;4563;54.756;9.400;2024-01-25T15:58:30;10.00;78.00
9057;DHT22;4563;54.756;9.400;2024-01-25T16:00:57;10.00;78.00
9057;DHT22;4563;54.756;9.400;2024-01-25T16:03:24;10.00;78.00
9057;DHT22;4563;54.756;9.400;2024-01-25T16:05:51;10.00;78.10
9057;DHT22;4563;54.756;9.400;2024-01-25T16:08:21;10.00;78.10
9057;DHT22;4563;54.756;9.400;2024-01-25T16:10:48;10.00;78.10
9057;DHT22;4563;54.756;9.400;2024-01-25T16:13:15;10.00;78.20